Geronimo — PD6553 — position and weather

sailwx.info

Track history (hours):
 
Tides and Currents Weather Stations Pressure Air Temp Water Temp Dewpoint Dewpoint Depression Visibility Wind Speed Wind Dir Waves Ship Positions

Geronimo

Last reported at 2016-May-02 04:33 UTC. Time now 2016-May-02 05:51 UTC.
Position N 18°04' W 063°06'.

Length 20 m; draft 2.9 m.

Type: Sailing vessel. MMSI: 244620501.

Date/timePositionNaut miles runAvg speedWind from/ knotsBaromVisibWave heightAir tempDewpointWater temp
2016-May-02 04:33N 18°04' W 063°06'0 0.0
2016-May-02 03:30N 18°04' W 063°06'0 0.0
2016-May-02 02:28N 18°04' W 063°06'0 0.0
2016-May-02 01:29N 18°04' W 063°06'0 0.0
2016-May-02 00:27N 18°04' W 063°06'0 0.0
2016-May-01 23:25N 18°04' W 063°06'0 0.0
2016-May-01 22:33N 18°04' W 063°06'0 0.0
2016-May-01 21:28N 18°04' W 063°06'0 0.0
2016-May-01 20:33N 18°04' W 063°06'0 0.0
2016-May-01 19:31N 18°04' W 063°06'0 0.3
2016-May-01 18:32N 18°04' W 063°06'0 0.0
2016-May-01 17:34N 18°04' W 063°06'0 0.0
2016-May-01 16:16N 18°04' W 063°06'0 0.0
2016-May-01 15:27N 18°04' W 063°06'0 0.0
2016-May-01 14:32N 18°04' W 063°06'0 0.0
2016-May-01 13:18N 18°04' W 063°06'0 0.0
2016-May-01 11:32N 18°04' W 063°06'0 0.0
2016-May-01 10:29N 18°04' W 063°06'0 0.0
2016-May-01 09:26N 18°04' W 063°06'0 0.0
2016-May-01 08:26N 18°04' W 063°06'0 0.0
2016-May-01 07:26N 18°04' W 063°06'0 0.0
2016-May-01 06:32N 18°04' W 063°06'0 0.0
2016-May-01 05:29N 18°04' W 063°06'0 0.0
2016-May-01 04:33N 18°04' W 063°06'0 0.0
2016-May-01 03:12N 18°04' W 063°06'1 0.7
2016-May-01 02:25N 18°05' W 063°06'3 3.3
2016-May-01 01:31N 18°02' W 063°08'56 1.3
2016-Apr-29 06:29N 17°33' W 062°19'5 5.6
2016-Apr-29 05:33N 17°29' W 062°15'6 6.1
2016-Apr-29 04:34N 17°24' W 062°11'7 7.0
2016-Apr-29 03:34N 17°19' W 062°06'6 6.2
2016-Apr-29 02:33N 17°14' W 062°03'6 6.2
2016-Apr-29 01:33N 17°09' W 061°59'5 5.4
2016-Apr-29 00:34N 17°05' W 061°54'0 0.4
2016-Apr-28 23:33N 17°05' W 061°54'0 0.0
2016-Apr-28 22:33N 17°05' W 061°54'0 0.0
2016-Apr-28 21:34N 17°05' W 061°54'0 0.0
2016-Apr-28 20:33N 17°05' W 061°54'2 1.9
2016-Apr-28 19:34N 17°05' W 061°56'6 5.8
2016-Apr-28 18:33N 16°60' W 061°52'5 5.2
2016-Apr-28 17:34N 17°01' W 061°47'0 0.0
2016-Apr-28 16:34N 17°01' W 061°47'0 0.0
2016-Apr-28 15:33N 17°01' W 061°47'0 0.0
2016-Apr-28 14:33N 17°01' W 061°47'0 0.0
2016-Apr-28 13:33N 17°01' W 061°47'0 0.0
2016-Apr-28 12:34N 17°01' W 061°47'0 0.0
2016-Apr-28 11:33N 17°01' W 061°47'0 0.0
2016-Apr-28 10:33N 17°01' W 061°47'0 0.0
2016-Apr-28 09:33N 17°01' W 061°47'0 0.0
2016-Apr-28 08:34N 17°01' W 061°47'0 0.0
2016-Apr-28 07:34N 17°01' W 061°47'0 0.0
2016-Apr-28 06:34N 17°01' W 061°47'0 0.0
2016-Apr-28 05:34N 17°01' W 061°47'0 0.0
2016-Apr-28 04:34N 17°01' W 061°47'0 0.0
2016-Apr-28 03:34N 17°01' W 061°47'0 0.0
2016-Apr-28 02:33N 17°01' W 061°47'0 0.0
2016-Apr-28 01:33N 17°01' W 061°47'0 0.0
2016-Apr-28 00:33N 17°01' W 061°47'0 0.0
2016-Apr-27 23:33N 17°01' W 061°47'0 0.0
2016-Apr-27 22:34N 17°01' W 061°47'0 0.0
2016-Apr-27 21:33N 17°01' W 061°47'0 0.0
2016-Apr-27 20:33N 17°01' W 061°47'0 0.0
2016-Apr-27 19:33N 17°01' W 061°47'0 0.0
2016-Apr-27 18:33N 17°01' W 061°47'0 0.0
2016-Apr-27 17:33N 17°01' W 061°47'0 0.0
2016-Apr-27 16:33N 17°01' W 061°47'0 0.0
2016-Apr-27 15:33N 17°01' W 061°47'0 0.0
2016-Apr-27 14:33N 17°01' W 061°47'0 0.0
2016-Apr-27 13:33N 17°01' W 061°47'0 0.0
2016-Apr-27 12:34N 17°01' W 061°47'0 0.0
2016-Apr-27 11:33N 17°01' W 061°47'0 0.0
2016-Apr-27 10:34N 17°01' W 061°47'0 0.0
2016-Apr-27 09:34N 17°01' W 061°47'0 0.0
2016-Apr-27 08:34N 17°01' W 061°47'0 0.0
2016-Apr-27 07:34N 17°01' W 061°47'0 0.0
2016-Apr-27 06:34N 17°01' W 061°47'0 0.0
2016-Apr-27 05:34N 17°01' W 061°47'0 0.0
2016-Apr-27 04:33N 17°01' W 061°47'0 0.0
2016-Apr-27 03:33N 17°01' W 061°47'0 0.0
2016-Apr-27 02:34N 17°01' W 061°47'0 0.0
2016-Apr-27 01:34N 17°01' W 061°47'0 0.0
2016-Apr-27 00:34N 17°01' W 061°47'5 4.9
2016-Apr-26 23:34N 16°56' W 061°47'8 8.2
2016-Apr-26 22:33N 16°48' W 061°47'9 8.6
2016-Apr-26 21:33N 16°39' W 061°47'21 6.8
2016-Apr-26 18:31N 16°18' W 061°48'0 0.0
2016-Apr-26 17:33N 16°18' W 061°48'0 0.0
2016-Apr-26 16:31N 16°18' W 061°48'0 0.0
2016-Apr-26 15:31N 16°18' W 061°48'0 0.0
2016-Apr-26 14:32N 16°18' W 061°48'0 0.0
2016-Apr-26 13:32N 16°18' W 061°48'0 0.0
2016-Apr-26 12:33N 16°18' W 061°48'0 0.0
2016-Apr-26 11:33N 16°18' W 061°48'0 0.0
2016-Apr-26 10:31N 16°18' W 061°48'0 0.0
2016-Apr-26 09:31N 16°18' W 061°48'0 0.0
2016-Apr-26 08:25N 16°18' W 061°48'0 0.0
2016-Apr-26 07:31N 16°18' W 061°48'0 0.0
2016-Apr-26 06:32N 16°18' W 061°48'0 0.0
2016-Apr-26 05:32N 16°18' W 061°48'0 0.0
2016-Apr-26 04:30N 16°18' W 061°48'0 0.0
2016-Apr-26 03:34N 16°18' W 061°48'0 0.0
2016-Apr-26 02:32N 16°18' W 061°48'0 0.0
2016-Apr-26 01:33N 16°18' W 061°48'0 0.0
2016-Apr-26 00:33N 16°18' W 061°48'0 0.0
2016-Apr-25 23:29N 16°18' W 061°48'0 0.0
2016-Apr-25 22:33N 16°18' W 061°48'0 0.0
2016-Apr-25 21:33N 16°18' W 061°48'0 0.0
2016-Apr-25 20:32N 16°18' W 061°48'0 0.0
2016-Apr-25 19:32N 16°18' W 061°48'0 0.5
2016-Apr-25 18:33N 16°18' W 061°48'8 5.3
2016-Apr-25 17:06N 16°10' W 061°48'3 5.2
2016-Apr-25 16:31N 16°07' W 061°48'5 5.0
2016-Apr-25 15:29N 16°03' W 061°46'17 0.8
2016-Apr-24 17:19N 16°12' W 061°32'  
Track history (hours):
 
Tides and Currents Weather Stations Pressure Air Temp Water Temp Dewpoint Dewpoint Depression Visibility Wind Speed Wind Dir Waves Ship Positions

Geronimo

Last reported at 2016-May-02 04:33 UTC. Time now 2016-May-02 05:51 UTC.
Position N 18°04' W 063°06'.

Length 20 m; draft 2.9 m.

Type: Sailing vessel. MMSI: 244620501.

Date/timePositionNaut miles runAvg speedWind from/ knotsBaromVisibWave heightAir tempDewpointWater temp
2016-May-02 04:33N 18°04' W 063°06'0 0.0
2016-May-02 03:30N 18°04' W 063°06'0 0.0
2016-May-02 02:28N 18°04' W 063°06'0 0.0
2016-May-02 01:29N 18°04' W 063°06'0 0.0
2016-May-02 00:27N 18°04' W 063°06'0 0.0
2016-May-01 23:25N 18°04' W 063°06'0 0.0
2016-May-01 22:33N 18°04' W 063°06'0 0.0
2016-May-01 21:28N 18°04' W 063°06'0 0.0
2016-May-01 20:33N 18°04' W 063°06'0 0.0
2016-May-01 19:31N 18°04' W 063°06'0 0.3
2016-May-01 18:32N 18°04' W 063°06'0 0.0
2016-May-01 17:34N 18°04' W 063°06'0 0.0
2016-May-01 16:16N 18°04' W 063°06'0 0.0
2016-May-01 15:27N 18°04' W 063°06'0 0.0
2016-May-01 14:32N 18°04' W 063°06'0 0.0
2016-May-01 13:18N 18°04' W 063°06'0 0.0
2016-May-01 11:32N 18°04' W 063°06'0 0.0
2016-May-01 10:29N 18°04' W 063°06'0 0.0
2016-May-01 09:26N 18°04' W 063°06'0 0.0
2016-May-01 08:26N 18°04' W 063°06'0 0.0
2016-May-01 07:26N 18°04' W 063°06'0 0.0
2016-May-01 06:32N 18°04' W 063°06'0 0.0
2016-May-01 05:29N 18°04' W 063°06'0 0.0
2016-May-01 04:33N 18°04' W 063°06'0 0.0
2016-May-01 03:12N 18°04' W 063°06'1 0.7
2016-May-01 02:25N 18°05' W 063°06'3 3.3
2016-May-01 01:31N 18°02' W 063°08'56 1.3
2016-Apr-29 06:29N 17°33' W 062°19'5 5.6
2016-Apr-29 05:33N 17°29' W 062°15'6 6.1
2016-Apr-29 04:34N 17°24' W 062°11'7 7.0
2016-Apr-29 03:34N 17°19' W 062°06'6 6.2
2016-Apr-29 02:33N 17°14' W 062°03'6 6.2
2016-Apr-29 01:33N 17°09' W 061°59'5 5.4
2016-Apr-29 00:34N 17°05' W 061°54'0 0.4
2016-Apr-28 23:33N 17°05' W 061°54'0 0.0
2016-Apr-28 22:33N 17°05' W 061°54'0 0.0
2016-Apr-28 21:34N 17°05' W 061°54'0 0.0
2016-Apr-28 20:33N 17°05' W 061°54'2 1.9
2016-Apr-28 19:34N 17°05' W 061°56'6 5.8
2016-Apr-28 18:33N 16°60' W 061°52'5 5.2
2016-Apr-28 17:34N 17°01' W 061°47'0 0.0
2016-Apr-28 16:34N 17°01' W 061°47'0 0.0
2016-Apr-28 15:33N 17°01' W 061°47'0 0.0
2016-Apr-28 14:33N 17°01' W 061°47'0 0.0
2016-Apr-28 13:33N 17°01' W 061°47'0 0.0
2016-Apr-28 12:34N 17°01' W 061°47'0 0.0
2016-Apr-28 11:33N 17°01' W 061°47'0 0.0
2016-Apr-28 10:33N 17°01' W 061°47'0 0.0
2016-Apr-28 09:33N 17°01' W 061°47'0 0.0
2016-Apr-28 08:34N 17°01' W 061°47'0 0.0
2016-Apr-28 07:34N 17°01' W 061°47'0 0.0
2016-Apr-28 06:34N 17°01' W 061°47'0 0.0
2016-Apr-28 05:34N 17°01' W 061°47'0 0.0
2016-Apr-28 04:34N 17°01' W 061°47'0 0.0
2016-Apr-28 03:34N 17°01' W 061°47'0 0.0
2016-Apr-28 02:33N 17°01' W 061°47'0 0.0
2016-Apr-28 01:33N 17°01' W 061°47'0 0.0
2016-Apr-28 00:33N 17°01' W 061°47'0 0.0
2016-Apr-27 23:33N 17°01' W 061°47'0 0.0
2016-Apr-27 22:34N 17°01' W 061°47'0 0.0
2016-Apr-27 21:33N 17°01' W 061°47'0 0.0
2016-Apr-27 20:33N 17°01' W 061°47'0 0.0
2016-Apr-27 19:33N 17°01' W 061°47'0 0.0
2016-Apr-27 18:33N 17°01' W 061°47'0 0.0
2016-Apr-27 17:33N 17°01' W 061°47'0 0.0
2016-Apr-27 16:33N 17°01' W 061°47'0 0.0
2016-Apr-27 15:33N 17°01' W 061°47'0 0.0
2016-Apr-27 14:33N 17°01' W 061°47'0 0.0
2016-Apr-27 13:33N 17°01' W 061°47'0 0.0
2016-Apr-27 12:34N 17°01' W 061°47'0 0.0
2016-Apr-27 11:33N 17°01' W 061°47'0 0.0
2016-Apr-27 10:34N 17°01' W 061°47'0 0.0
2016-Apr-27 09:34N 17°01' W 061°47'0 0.0
2016-Apr-27 08:34N 17°01' W 061°47'0 0.0
2016-Apr-27 07:34N 17°01' W 061°47'0 0.0
2016-Apr-27 06:34N 17°01' W 061°47'0 0.0
2016-Apr-27 05:34N 17°01' W 061°47'0 0.0
2016-Apr-27 04:33N 17°01' W 061°47'0 0.0
2016-Apr-27 03:33N 17°01' W 061°47'0 0.0
2016-Apr-27 02:34N 17°01' W 061°47'0 0.0
2016-Apr-27 01:34N 17°01' W 061°47'0 0.0
2016-Apr-27 00:34N 17°01' W 061°47'5 4.9
2016-Apr-26 23:34N 16°56' W 061°47'8 8.2
2016-Apr-26 22:33N 16°48' W 061°47'9 8.6
2016-Apr-26 21:33N 16°39' W 061°47'21 6.8
2016-Apr-26 18:31N 16°18' W 061°48'0 0.0
2016-Apr-26 17:33N 16°18' W 061°48'0 0.0
2016-Apr-26 16:31N 16°18' W 061°48'0 0.0
2016-Apr-26 15:31N 16°18' W 061°48'0 0.0
2016-Apr-26 14:32N 16°18' W 061°48'0 0.0
2016-Apr-26 13:32N 16°18' W 061°48'0 0.0
2016-Apr-26 12:33N 16°18' W 061°48'0 0.0
2016-Apr-26 11:33N 16°18' W 061°48'0 0.0
2016-Apr-26 10:31N 16°18' W 061°48'0 0.0
2016-Apr-26 09:31N 16°18' W 061°48'0 0.0
2016-Apr-26 08:25N 16°18' W 061°48'0 0.0
2016-Apr-26 07:31N 16°18' W 061°48'0 0.0
2016-Apr-26 06:32N 16°18' W 061°48'0 0.0
2016-Apr-26 05:32N 16°18' W 061°48'0 0.0
2016-Apr-26 04:30N 16°18' W 061°48'0 0.0
2016-Apr-26 03:34N 16°18' W 061°48'0 0.0
2016-Apr-26 02:32N 16°18' W 061°48'0 0.0
2016-Apr-26 01:33N 16°18' W 061°48'0 0.0
2016-Apr-26 00:33N 16°18' W 061°48'0 0.0
2016-Apr-25 23:29N 16°18' W 061°48'0 0.0
2016-Apr-25 22:33N 16°18' W 061°48'0 0.0
2016-Apr-25 21:33N 16°18' W 061°48'0 0.0
2016-Apr-25 20:32N 16°18' W 061°48'0 0.0
2016-Apr-25 19:32N 16°18' W 061°48'0 0.5
2016-Apr-25 18:33N 16°18' W 061°48'8 5.3
2016-Apr-25 17:06N 16°10' W 061°48'3 5.2
2016-Apr-25 16:31N 16°07' W 061°48'5 5.0
2016-Apr-25 15:29N 16°03' W 061°46'17 0.8
2016-Apr-24 17:19N 16°12' W 061°32'  

Dump ship's entire track history